Time,TemperatureF,DewpointF,PressureIn,WindDirection,WindDirectionDegrees,WindSpeedMPH,WindSpeedGustMPH,Humidity,HourlyPrecipIn,Conditions,Clouds,dailyrainin,SoftwareType,DateUTC
2013-04-03 00:00:00,28.6,24.4,30.32,SSE,153,1.0,1.0,84,0.00,,,0.00,Wunderground v.1.15,2013-04-03 05:00:00,
2013-04-03 00:02:00,28.5,24.3,30.32,SSE,153,0.0,10.0,84,0.00,,,0.00,Wunderground v.1.15,2013-04-03 05:02:00,
2013-04-03 00:08:00,28.1,24.2,30.32,SSE,163,0.0,10.0,85,0.00,,,0.00,Wunderground v.1.15,2013-04-03 05:08:00,
2013-04-03 00:10:00,28.1,24.2,30.32,SSE,150,0.0,1.0,85,0.00,,,0.00,Wunderground v.1.15,2013-04-03 05:10:00,
2013-04-03 00:14:00,28.1,24.5,30.32,SSE,152,0.0,1.0,86,0.00,,,0.00,Wunderground v.1.15,2013-04-03 05:14:00,
2013-04-03 00:16:00,28.0,24.4,30.32,SE,141,0.0,1.0,86,0.00,,,0.00,Wunderground v.1.15,2013-04-03 05:16:00,
2013-04-03 00:18:00,28.0,24.4,30.32,SSE,148,0.0,1.0,86,0.00,,,0.00,Wunderground v.1.15,2013-04-03 05:18:00,
2013-04-03 00:21:00,28.0,24.4,30.32,SE,135,0.0,1.0,86,0.00,,,0.00,Wunderground v.1.15,2013-04-03 05:21:00,
2013-04-03 00:26:00,28.1,24.7,30.32,SE,135,1.0,1.0,87,0.00,,,0.00,Wunderground v.1.15,2013-04-03 05:26:00,
2013-04-03 00:28:00,28.1,24.7,30.32,SE,136,1.0,1.0,87,0.00,,,0.00,Wunderground v.1.15,2013-04-03 05:28:00,
2013-04-03 00:32:00,28.0,24.4,30.32,SE,141,1.0,1.0,86,0.00,,,0.00,Wunderground v.1.15,2013-04-03 05:32:00,
2013-04-03 00:34:00,27.9,24.3,30.32,SSE,162,1.0,1.0,86,0.00,,,0.00,Wunderground v.1.15,2013-04-03 05:34:00,
2013-04-03 00:38:00,27.8,24.4,30.32,SSE,152,1.0,1.0,87,0.00,,,0.00,Wunderground v.1.15,2013-04-03 05:38:00,
2013-04-03 00:42:00,27.8,24.4,30.32,SSE,153,1.0,1.0,87,0.00,,,0.00,Wunderground v.1.15,2013-04-03 05:42:00,
2013-04-03 00:44:00,27.8,24.4,30.32,SE,145,1.0,1.0,87,0.00,,,0.00,Wunderground v.1.15,2013-04-03 05:44:00,
2013-04-03 00:46:00,27.9,24.5,30.32,SE,141,1.0,1.0,87,0.00,,,0.00,Wunderground v.1.15,2013-04-03 05:46:00,
2013-04-03 00:50:00,27.8,24.4,30.32,SE,139,1.0,1.0,87,0.00,,,0.00,Wunderground v.1.15,2013-04-03 05:50:00,
2013-04-03 00:52:00,27.7,24.1,30.32,SE,128,1.0,1.0,86,0.00,,,0.00,Wunderground v.1.15,2013-04-03 05:52:00,
2013-04-03 00:53:00,27.8,24.2,30.33,SE,135,1.0,2.0,86,0.00,,,0.00,Wunderground v.1.15,2013-04-03 05:53:00,
2013-04-03 00:58:00,27.8,24.2,30.32,SE,139,1.0,2.0,86,0.00,,,0.00,Wunderground v.1.15,2013-04-03 05:58:00,
2013-04-03 01:00:00,27.7,24.1,30.32,SE,139,1.0,1.0,86,0.00,,,0.00,Wunderground v.1.15,2013-04-03 06:00:00,
2013-04-03 01:02:00,27.7,24.1,30.32,SE,142,1.0,5.0,86,0.00,,,0.00,Wunderground v.1.15,2013-04-03 06:02:00,
2013-04-03 01:04:00,27.7,24.1,30.33,SE,125,1.0,5.0,86,0.00,,,0.00,Wunderground v.1.15,2013-04-03 06:04:00,
2013-04-03 01:10:00,27.7,24.1,30.32,SSE,155,1.0,1.0,86,0.00,,,0.00,Wunderground v.1.15,2013-04-03 06:10:00,
2013-04-03 01:12:00,27.7,24.1,30.32,SSE,148,1.0,5.0,86,0.00,,,0.00,Wunderground v.1.15,2013-04-03 06:12:00,
2013-04-03 01:14:00,27.6,24.0,30.32,SSE,167,1.0,5.0,86,0.00,,,0.00,Wunderground v.1.15,2013-04-03 06:14:00,
2013-04-03 01:18:00,27.6,24.2,30.32,South,190,1.0,5.0,87,0.00,,,0.00,Wunderground v.1.15,2013-04-03 06:18:00,
2013-04-03 01:22:00,27.5,24.1,30.32,SSW,197,0.0,5.0,87,0.00,,,0.00,Wunderground v.1.15,2013-04-03 06:22:00,
2013-04-03 01:23:00,27.5,24.1,30.32,SSE,149,0.0,5.0,87,0.00,,,0.00,Wunderground v.1.15,2013-04-03 06:23:00,
2013-04-03 01:30:00,27.3,23.9,30.32,ENE,59,0.0,5.0,87,0.00,,,0.00,Wunderground v.1.15,2013-04-03 06:30:00,
2013-04-03 01:34:00,27.0,23.6,30.32,ENE,64,0.0,5.0,87,0.00,,,0.00,Wunderground v.1.15,2013-04-03 06:34:00,
2013-04-03 01:36:00,26.9,23.5,30.33,ENE,70,0.0,5.0,87,0.00,,,0.00,Wunderground v.1.15,2013-04-03 06:36:00,
2013-04-03 01:38:00,26.8,23.4,30.32,NNE,25,0.0,5.0,87,0.00,,,0.00,Wunderground v.1.15,2013-04-03 06:38:00,
2013-04-03 01:40:00,26.8,23.7,30.32,ENE,65,0.0,5.0,88,0.00,,,0.00,Wunderground v.1.15,2013-04-03 06:40:00,
2013-04-03 01:42:00,26.6,23.5,30.32,ENE,72,0.0,5.0,88,0.00,,,0.00,Wunderground v.1.15,2013-04-03 06:42:00,
2013-04-03 01:43:00,26.5,23.4,30.33,South,169,0.0,5.0,88,0.00,,,0.00,Wunderground v.1.15,2013-04-03 06:43:00,
2013-04-03 01:48:00,26.5,23.7,30.33,NNE,32,1.0,5.0,89,0.00,,,0.00,Wunderground v.1.15,2013-04-03 06:48:00,
2013-04-03 01:54:00,26.5,23.7,30.33,East,96,0.0,5.0,89,0.00,,,0.00,Wunderground v.1.15,2013-04-03 06:54:00,
2013-04-03 01:56:00,26.5,23.7,30.33,East,94,0.0,5.0,89,0.00,,,0.00,Wunderground v.1.15,2013-04-03 06:56:00,
2013-04-03 02:00:00,26.3,23.5,30.33,ENE,70,0.0,5.0,89,0.00,,,0.00,Wunderground v.1.15,2013-04-03 07:00:00,
2013-04-03 02:04:00,26.2,23.4,30.33,SE,136,0.0,5.0,89,0.00,,,0.00,Wunderground v.1.15,2013-04-03 07:04:00,
2013-04-03 02:06:00,26.2,23.4,30.33,SE,137,0.0,5.0,89,0.00,,,0.00,Wunderground v.1.15,2013-04-03 07:06:00,
2013-04-03 02:12:00,26.1,23.6,30.32,East,79,0.0,5.0,90,0.00,,,0.00,Wunderground v.1.15,2013-04-03 07:12:00,
2013-04-03 02:18:00,26.1,23.6,30.33,SE,143,0.0,5.0,90,0.00,,,0.00,Wunderground v.1.15,2013-04-03 07:18:00,
2013-04-03 02:20:00,26.1,23.6,30.33,ESE,115,0.0,5.0,90,0.00,,,0.00,Wunderground v.1.15,2013-04-03 07:20:00,
2013-04-03 02:22:00,26.1,23.6,30.33,ESE,115,0.0,5.0,90,0.00,,,0.00,Wunderground v.1.15,2013-04-03 07:22:00,
2013-04-03 02:27:00,26.1,23.6,30.33,ESE,103,0.0,5.0,90,0.00,,,0.00,Wunderground v.1.15,2013-04-03 07:27:00,
2013-04-03 02:32:00,26.1,23.6,30.33,SE,143,0.0,5.0,90,0.00,,,0.00,Wunderground v.1.15,2013-04-03 07:32:00,
2013-04-03 02:34:00,26.1,23.6,30.33,SE,143,0.0,5.0,90,0.00,,,0.00,Wunderground v.1.15,2013-04-03 07:34:00,
2013-04-03 02:37:00,26.1,23.6,30.33,SSW,212,0.0,5.0,90,0.00,,,0.00,Wunderground v.1.15,2013-04-03 07:37:00,
2013-04-03 02:40:00,26.2,23.7,30.33,ENE,62,0.0,5.0,90,0.00,,,0.00,Wunderground v.1.15,2013-04-03 07:40:00,
2013-04-03 02:42:00,26.3,23.8,30.33,ENE,63,0.0,5.0,90,0.00,,,0.00,Wunderground v.1.15,2013-04-03 07:42:00,
2013-04-03 02:46:00,26.3,23.8,30.33,ESE,111,0.0,5.0,90,0.00,,,0.00,Wunderground v.1.15,2013-04-03 07:46:00,
2013-04-03 02:48:00,26.4,23.9,30.33,ESE,123,0.0,5.0,90,0.00,,,0.00,Wunderground v.1.15,2013-04-03 07:48:00,
2013-04-03 02:54:00,26.3,23.5,30.33,SE,124,0.0,5.0,89,0.00,,,0.00,Wunderground v.1.15,2013-04-03 07:54:00,
2013-04-03 02:56:00,26.3,23.5,30.33,ESE,122,0.0,5.0,89,0.00,,,0.00,Wunderground v.1.15,2013-04-03 07:56:00,
2013-04-03 02:59:00,26.2,23.4,30.33,East,89,0.0,5.0,89,0.00,,,0.00,Wunderground v.1.15,2013-04-03 07:59:00,
2013-04-03 03:02:00,26.2,23.4,30.33,East,89,0.0,5.0,89,0.00,,,0.00,Wunderground v.1.15,2013-04-03 08:02:00,
2013-04-03 03:04:00,26.2,23.4,30.33,South,171,0.0,5.0,89,0.00,,,0.00,Wunderground v.1.15,2013-04-03 08:04:00,
2013-04-03 03:07:00,26.1,23.3,30.33,SE,135,0.0,5.0,89,0.00,,,0.00,Wunderground v.1.15,2013-04-03 08:07:00,
2013-04-03 03:12:00,26.1,23.3,30.33,SE,135,0.0,5.0,89,0.00,,,0.00,Wunderground v.1.15,2013-04-03 08:12:00,
2013-04-03 03:14:00,26.0,23.2,30.33,East,81,0.0,5.0,89,0.00,,,0.00,Wunderground v.1.15,2013-04-03 08:14:00,
2013-04-03 03:18:00,26.1,23.3,30.33,South,172,0.0,5.0,89,0.00,,,0.00,Wunderground v.1.15,2013-04-03 08:18:00,
2013-04-03 03:20:00,26.1,23.3,30.33,SSW,210,0.0,5.0,89,0.00,,,0.00,Wunderground v.1.15,2013-04-03 08:20:00,
2013-04-03 03:26:00,26.2,23.4,30.33,SE,129,0.0,5.0,89,0.00,,,0.00,Wunderground v.1.15,2013-04-03 08:26:00,
2013-04-03 03:28:00,26.2,23.4,30.33,SE,136,0.0,5.0,89,0.00,,,0.00,Wunderground v.1.15,2013-04-03 08:28:00,
2013-04-03 03:30:00,26.3,23.5,30.33,SE,139,0.0,5.0,89,0.00,,,0.00,Wunderground v.1.15,2013-04-03 08:30:00,
2013-04-03 03:32:00,26.5,23.7,30.33,SE,138,1.0,5.0,89,0.00,,,0.00,Wunderground v.1.15,2013-04-03 08:32:00,
2013-04-03 03:36:00,26.5,23.7,30.33,SSE,149,1.0,5.0,89,0.00,,,0.00,Wunderground v.1.15,2013-04-03 08:36:00,
2013-04-03 03:38:00,26.5,23.7,30.33,SE,135,1.0,5.0,89,0.00,,,0.00,Wunderground v.1.15,2013-04-03 08:38:00,
2013-04-03 03:42:00,26.6,23.8,30.33,SSE,152,1.0,5.0,89,0.00,,,0.00,Wunderground v.1.15,2013-04-03 08:42:00,
2013-04-03 03:44:00,26.6,23.8,30.33,SSE,156,1.0,5.0,89,0.00,,,0.00,Wunderground v.1.15,2013-04-03 08:44:00,
2013-04-03 03:50:00,26.5,23.7,30.33,SE,134,1.0,5.0,89,0.00,,,0.00,Wunderground v.1.15,2013-04-03 08:50:00,
2013-04-03 03:52:00,26.5,23.7,30.33,SSE,157,1.0,5.0,89,0.00,,,0.00,Wunderground v.1.15,2013-04-03 08:52:00,
2013-04-03 03:54:00,26.5,23.7,30.33,South,179,1.0,5.0,89,0.00,,,0.00,Wunderground v.1.15,2013-04-03 08:54:00,
2013-04-03 03:56:00,26.5,23.7,30.33,SSE,162,1.0,5.0,89,0.00,,,0.00,Wunderground v.1.15,2013-04-03 08:56:00,
2013-04-03 03:57:00,26.5,23.7,30.33,ESE,122,1.0,5.0,89,0.00,,,0.00,Wunderground v.1.15,2013-04-03 08:57:00,
2013-04-03 04:02:00,26.3,23.5,30.33,SSE,150,0.0,5.0,89,0.00,,,0.00,Wunderground v.1.15,2013-04-03 09:02:00,
2013-04-03 04:04:00,26.3,23.5,30.33,South,181,0.0,5.0,89,0.00,,,0.00,Wunderground v.1.15,2013-04-03 09:04:00,
2013-04-03 04:08:00,26.3,23.5,30.33,SSE,148,0.0,5.0,89,0.00,,,0.00,Wunderground v.1.15,2013-04-03 09:08:00,
2013-04-03 04:10:00,26.2,23.4,30.33,SSE,148,0.0,5.0,89,0.00,,,0.00,Wunderground v.1.15,2013-04-03 09:10:00,
2013-04-03 04:12:00,26.2,23.4,30.33,WNW,295,0.0,5.0,89,0.00,,,0.00,Wunderground v.1.15,2013-04-03 09:12:00,
2013-04-03 04:14:00,26.2,23.4,30.33,NNE,26,0.0,5.0,89,0.00,,,0.00,Wunderground v.1.15,2013-04-03 09:14:00,
2013-04-03 04:16:00,26.2,23.4,30.33,South,173,0.0,5.0,89,0.00,,,0.00,Wunderground v.1.15,2013-04-03 09:16:00,
2013-04-03 04:18:00,26.3,23.5,30.33,South,191,1.0,5.0,89,0.00,,,0.00,Wunderground v.1.15,2013-04-03 09:18:00,
2013-04-03 04:20:00,26.3,23.8,30.33,SW,219,1.0,1.0,90,0.00,,,0.00,Wunderground v.1.15,2013-04-03 09:20:00,
2013-04-03 04:23:00,26.4,23.9,30.33,SSE,166,1.0,5.0,90,0.00,,,0.00,Wunderground v.1.15,2013-04-03 09:23:00,
2013-04-03 04:25:00,26.5,23.7,30.33,SE,138,1.0,5.0,89,0.00,,,0.00,Wunderground v.1.15,2013-04-03 09:25:00,
2013-04-03 04:30:00,26.5,23.7,30.33,NE,50,1.0,5.0,89,0.00,,,0.00,Wunderground v.1.15,2013-04-03 09:30:00,
2013-04-03 04:36:00,26.5,23.7,30.32,NE,39,1.0,5.0,89,0.00,,,0.00,Wunderground v.1.15,2013-04-03 09:36:00,
2013-04-03 04:38:00,26.5,23.7,30.33,SW,231,1.0,5.0,89,0.00,,,0.00,Wunderground v.1.15,2013-04-03 09:38:00,
2013-04-03 04:43:00,26.5,23.7,30.33,SSW,194,1.0,5.0,89,0.00,,,0.00,Wunderground v.1.15,2013-04-03 09:43:00,
2013-04-03 04:45:00,26.5,23.7,30.33,South,169,1.0,5.0,89,0.00,,,0.00,Wunderground v.1.15,2013-04-03 09:45:00,
2013-04-03 04:47:00,26.6,23.8,30.33,SE,138,1.0,5.0,89,0.00,,,0.00,Wunderground v.1.15,2013-04-03 09:47:00,
2013-04-03 04:52:00,26.9,24.1,30.33,SE,138,2.0,5.0,89,0.00,,,0.00,Wunderground v.1.15,2013-04-03 09:52:00,
2013-04-03 04:54:00,27.0,23.9,30.33,SE,145,2.0,5.0,88,0.00,,,0.00,Wunderground v.1.15,2013-04-03 09:54:00,
2013-04-03 05:00:00,27.1,23.7,30.33,SE,133,3.0,3.0,87,0.00,,,0.00,Wunderground v.1.15,2013-04-03 10:00:00,
2013-04-03 05:04:00,27.1,23.7,30.33,SE,136,2.0,5.0,87,0.00,,,0.00,Wunderground v.1.15,2013-04-03 10:04:00,
2013-04-03 05:06:00,27.1,23.7,30.33,South,183,2.0,5.0,87,0.00,,,0.00,Wunderground v.1.15,2013-04-03 10:06:00,
2013-04-03 05:09:00,27.0,23.4,30.33,SE,138,2.0,2.0,86,0.00,,,0.00,Wunderground v.1.15,2013-04-03 10:09:00,
2013-04-03 05:14:00,26.8,23.2,30.33,SSE,152,2.0,5.0,86,0.00,,,0.00,Wunderground v.1.15,2013-04-03 10:14:00,
2013-04-03 05:18:00,26.8,23.2,30.33,SE,125,2.0,5.0,86,0.00,,,0.00,Wunderground v.1.15,2013-04-03 10:18:00,
2013-04-03 05:20:00,26.8,23.4,30.34,ESE,118,2.0,5.0,87,0.00,,,0.00,Wunderground v.1.15,2013-04-03 10:20:00,
2013-04-03 05:24:00,26.7,23.1,30.33,SSE,148,2.0,5.0,86,0.00,,,0.00,Wunderground v.1.15,2013-04-03 10:24:00,
2013-04-03 05:26:00,26.7,23.1,30.33,SE,132,2.0,5.0,86,0.00,,,0.00,Wunderground v.1.15,2013-04-03 10:26:00,
2013-04-03 05:30:00,26.8,23.4,30.34,SSE,159,2.0,5.0,87,0.00,,,0.00,Wunderground v.1.15,2013-04-03 10:30:00,
2013-04-03 05:32:00,26.9,23.5,30.33,SSE,153,2.0,5.0,87,0.00,,,0.00,Wunderground v.1.15,2013-04-03 10:32:00,
2013-04-03 05:38:00,27.0,23.4,30.34,SSE,166,3.0,5.0,86,0.00,,,0.00,Wunderground v.1.15,2013-04-03 10:38:00,
2013-04-03 05:44:00,26.9,23.3,30.34,SSE,155,4.0,5.0,86,0.00,,,0.00,Wunderground v.1.15,2013-04-03 10:44:00,
2013-04-03 05:50:00,26.9,23.5,30.33,ESE,121,4.0,4.0,87,0.00,,,0.00,Wunderground v.1.15,2013-04-03 10:50:00,
2013-04-03 05:52:00,26.9,23.5,30.33,SE,135,4.0,5.0,87,0.00,,,0.00,Wunderground v.1.15,2013-04-03 10:52:00,
2013-04-03 05:58:00,27.4,23.8,30.33,SSE,157,4.0,5.0,86,0.00,,,0.00,Wunderground v.1.15,2013-04-03 10:58:00,
2013-04-03 06:00:00,27.5,23.9,30.34,SE,136,4.0,5.0,86,0.00,,,0.00,Wunderground v.1.15,2013-04-03 11:00:00,
2013-04-03 06:02:00,27.5,24.1,30.34,SE,142,4.0,5.0,87,0.00,,,0.00,Wunderground v.1.15,2013-04-03 11:02:00,
2013-04-03 06:04:00,27.5,23.9,30.34,SE,141,4.0,6.0,86,0.00,,,0.00,Wunderground v.1.15,2013-04-03 11:04:00,
2013-04-03 06:10:00,27.3,23.4,30.34,SE,128,5.0,5.0,85,0.00,,,0.00,Wunderground v.1.15,2013-04-03 11:10:00,
2013-04-03 06:16:00,27.2,23.8,30.34,SE,133,5.0,6.0,87,0.00,,,0.00,Wunderground v.1.15,2013-04-03 11:16:00,
2013-04-03 06:20:00,27.4,24.0,30.34,SE,128,5.0,5.0,87,0.00,,,0.00,Wunderground v.1.15,2013-04-03 11:20:00,
2013-04-03 06:23:00,27.6,24.0,30.34,SE,135,5.0,5.0,86,0.00,,,0.00,Wunderground v.1.15,2013-04-03 11:23:00,
2013-04-03 06:28:00,27.8,24.2,30.33,SE,134,5.0,5.0,86,0.00,,,0.00,Wunderground v.1.15,2013-04-03 11:28:00,
2013-04-03 06:30:00,27.9,24.0,30.33,SE,138,5.0,5.0,85,0.00,,,0.00,Wunderground v.1.15,2013-04-03 11:30:00,
2013-04-03 06:32:00,27.9,24.3,30.33,SE,137,5.0,5.0,86,0.00,,,0.00,Wunderground v.1.15,2013-04-03 11:32:00,
2013-04-03 06:38:00,28.0,24.1,30.33,SE,132,4.0,5.0,85,0.00,,,0.00,Wunderground v.1.15,2013-04-03 11:38:00,
2013-04-03 06:42:00,28.0,24.4,30.33,SE,134,4.0,5.0,86,0.00,,,0.00,Wunderground v.1.15,2013-04-03 11:42:00,
2013-04-03 06:44:00,28.0,24.4,30.33,SE,125,4.0,5.0,86,0.00,,,0.00,Wunderground v.1.15,2013-04-03 11:44:00,
2013-04-03 06:46:00,27.9,24.0,30.33,ESE,115,4.0,5.0,85,0.00,,,0.00,Wunderground v.1.15,2013-04-03 11:46:00,
2013-04-03 06:48:00,27.9,24.0,30.33,SE,124,4.0,5.0,85,0.00,,,0.00,Wunderground v.1.15,2013-04-03 11:48:00,
2013-04-03 06:54:00,27.8,24.2,30.33,SE,143,4.0,5.0,86,0.00,,,0.00,Wunderground v.1.15,2013-04-03 11:54:00,
2013-04-03 06:56:00,27.7,24.1,30.33,SE,124,4.0,5.0,86,0.00,,,0.00,Wunderground v.1.15,2013-04-03 11:56:00,
2013-04-03 06:58:00,27.7,24.1,30.33,SE,130,4.0,5.0,86,0.00,,,0.00,Wunderground v.1.15,2013-04-03 11:58:00,
2013-04-03 07:00:00,27.7,24.1,30.33,SSE,162,4.0,5.0,86,0.00,,,0.00,Wunderground v.1.15,2013-04-03 12:00:00,
2013-04-03 07:04:00,27.5,24.1,30.34,SE,145,4.0,5.0,87,0.00,,,0.00,Wunderground v.1.15,2013-04-03 12:04:00,
2013-04-03 07:08:00,27.5,24.1,30.34,SE,143,5.0,5.0,87,0.00,,,0.00,Wunderground v.1.15,2013-04-03 12:08:00,
2013-04-03 07:10:00,27.5,24.1,30.34,SSE,148,5.0,5.0,87,0.00,,,0.00,Wunderground v.1.15,2013-04-03 12:10:00,
2013-04-03 07:12:00,27.4,24.0,30.34,SE,139,5.0,6.0,87,0.00,,,0.00,Wunderground v.1.15,2013-04-03 12:12:00,
2013-04-03 07:16:00,27.2,23.8,30.35,SE,132,5.0,6.0,87,0.00,,,0.00,Wunderground v.1.15,2013-04-03 12:16:00,
2013-04-03 07:18:00,27.1,23.7,30.35,SE,146,4.0,6.0,87,0.00,,,0.00,Wunderground v.1.15,2013-04-03 12:18:00,
2013-04-03 07:24:00,27.0,23.9,30.34,SSE,147,5.0,6.0,88,0.00,,,0.00,Wunderground v.1.15,2013-04-03 12:24:00,
2013-04-03 07:26:00,27.1,24.0,30.34,SSE,155,5.0,6.0,88,0.00,,,0.00,Wunderground v.1.15,2013-04-03 12:26:00,
2013-04-03 07:31:00,27.2,24.1,30.34,SE,141,4.0,5.0,88,0.00,,,0.00,Wunderground v.1.15,2013-04-03 12:31:00,
2013-04-03 07:34:00,27.2,24.1,30.34,SE,139,5.0,5.0,88,0.00,,,0.00,Wunderground v.1.15,2013-04-03 12:34:00,
2013-04-03 07:38:00,27.3,24.2,30.34,SE,142,5.0,5.0,88,0.00,,,0.00,Wunderground v.1.15,2013-04-03 12:38:00,
2013-04-03 07:40:00,27.3,24.2,30.34,SE,137,5.0,5.0,88,0.00,,,0.00,Wunderground v.1.15,2013-04-03 12:40:00,
2013-04-03 07:42:00,27.4,24.3,30.34,SE,142,5.0,5.0,88,0.00,,,0.00,Wunderground v.1.15,2013-04-03 12:42:00,
2013-04-03 07:46:00,27.5,24.4,30.34,SE,135,5.0,5.0,88,0.00,,,0.00,Wunderground v.1.15,2013-04-03 12:46:00,
2013-04-03 07:50:00,27.5,24.4,30.34,SE,139,5.0,5.0,88,0.00,,,0.00,Wunderground v.1.15,2013-04-03 12:50:00,
2013-04-03 07:52:00,27.5,24.4,30.34,SE,128,5.0,6.0,88,0.00,,,0.00,Wunderground v.1.15,2013-04-03 12:52:00,
2013-04-03 07:54:00,27.6,24.5,30.34,SE,139,5.0,6.0,88,0.00,,,0.00,Wunderground v.1.15,2013-04-03 12:54:00,
2013-04-03 07:56:00,27.7,24.6,30.34,SE,124,5.0,6.0,88,0.00,,,0.00,Wunderground v.1.15,2013-04-03 12:56:00,
2013-04-03 07:58:00,27.7,24.6,30.34,SSE,148,5.0,6.0,88,0.00,,,0.00,Wunderground v.1.15,2013-04-03 12:58:00,
2013-04-03 08:02:00,27.8,24.7,30.34,SE,136,6.0,6.0,88,0.00,,,0.00,Wunderground v.1.15,2013-04-03 13:02:00,
2013-04-03 08:04:00,27.9,24.5,30.34,SE,136,6.0,6.0,87,0.00,,,0.00,Wunderground v.1.15,2013-04-03 13:04:00,
2013-04-03 08:06:00,28.0,24.6,30.34,SSE,167,6.0,6.0,87,0.00,,,0.00,Wunderground v.1.15,2013-04-03 13:06:00,
2013-04-03 08:10:00,28.1,24.7,30.34,SE,142,6.0,6.0,87,0.00,,,0.00,Wunderground v.1.15,2013-04-03 13:10:00,
2013-04-03 08:12:00,28.2,24.8,30.34,SSE,158,6.0,6.0,87,0.00,,,0.00,Wunderground v.1.15,2013-04-03 13:12:00,
2013-04-03 08:16:00,28.3,24.6,30.34,SSE,156,6.0,6.0,86,0.00,,,0.00,Wunderground v.1.15,2013-04-03 13:16:00,
2013-04-03 08:20:00,28.6,24.9,30.34,SSE,151,6.0,6.0,86,0.00,,,0.00,Wunderground v.1.15,2013-04-03 13:20:00,
2013-04-03 08:22:00,28.7,25.0,30.34,SSE,153,6.0,6.0,86,0.00,,,0.00,Wunderground v.1.15,2013-04-03 13:22:00,
2013-04-03 08:24:00,28.8,25.1,30.34,ESE,121,6.0,6.0,86,0.00,,,0.00,Wunderground v.1.15,2013-04-03 13:24:00,
2013-04-03 08:28:00,29.0,25.1,30.34,SSE,147,6.0,6.0,85,0.00,,,0.00,Wunderground v.1.15,2013-04-03 13:28:00,
2013-04-03 08:29:00,29.0,25.1,30.34,SE,132,6.0,6.0,85,0.00,,,0.00,Wunderground v.1.15,2013-04-03 13:29:00,
2013-04-03 08:34:00,29.3,25.4,30.34,SE,129,6.0,6.0,85,0.00,,,0.00,Wunderground v.1.15,2013-04-03 13:34:00,
2013-04-03 08:38:00,29.5,25.5,30.34,SE,142,6.0,6.0,85,0.00,,,0.00,Wunderground v.1.15,2013-04-03 13:38:00,
2013-04-03 08:40:00,29.7,25.7,30.34,SE,128,6.0,8.0,85,0.00,,,0.00,Wunderground v.1.15,2013-04-03 13:40:00,
2013-04-03 08:42:00,29.8,25.6,30.34,SE,136,6.0,8.0,84,0.00,,,0.00,Wunderground v.1.15,2013-04-03 13:42:00,
2013-04-03 08:46:00,29.9,25.7,30.34,SE,135,6.0,8.0,84,0.00,,,0.00,Wunderground v.1.15,2013-04-03 13:46:00,
2013-04-03 08:48:00,30.0,25.8,30.34,SE,142,7.0,8.0,84,0.00,,,0.00,Wunderground v.1.15,2013-04-03 13:48:00,
2013-04-03 08:50:00,30.2,25.9,30.34,SE,137,7.0,7.0,84,0.00,,,0.00,Wunderground v.1.15,2013-04-03 13:50:00,
2013-04-03 08:52:00,30.3,26.0,30.34,SE,141,7.0,7.0,84,0.00,,,0.00,Wunderground v.1.15,2013-04-03 13:52:00,
2013-04-03 08:54:00,30.6,26.3,30.34,SE,136,7.0,7.0,84,0.00,,,0.00,Wunderground v.1.15,2013-04-03 13:54:00,
2013-04-03 08:56:00,30.7,26.1,30.34,SE,132,6.0,7.0,83,0.00,,,0.00,Wunderground v.1.15,2013-04-03 13:56:00,
2013-04-03 09:00:00,30.7,25.9,30.34,SE,145,7.0,9.0,82,0.00,,,0.00,Wunderground v.1.15,2013-04-03 14:00:00,
2013-04-03 09:02:00,30.7,25.6,30.33,SSE,157,7.0,9.0,81,0.00,,,0.00,Wunderground v.1.15,2013-04-03 14:02:00,
2013-04-03 09:06:00,30.8,25.7,30.33,SE,141,8.0,9.0,81,0.00,,,0.00,Wunderground v.1.15,2013-04-03 14:06:00,
2013-04-03 09:10:00,31.1,25.7,30.33,SE,143,8.0,8.0,80,0.00,,,0.00,Wunderground v.1.15,2013-04-03 14:10:00,
2013-04-03 09:12:00,31.3,25.8,30.33,ESE,121,8.0,8.0,80,0.00,,,0.00,Wunderground v.1.15,2013-04-03 14:12:00,
2013-04-03 09:16:00,31.5,25.7,30.33,SE,128,8.0,9.0,79,0.00,,,0.00,Wunderground v.1.15,2013-04-03 14:16:00,
2013-04-03 09:18:00,31.6,25.8,30.33,SSE,160,8.0,9.0,79,0.00,,,0.00,Wunderground v.1.15,2013-04-03 14:18:00,
2013-04-03 09:20:00,31.8,26.3,30.33,South,181,8.0,8.0,80,0.00,,,0.00,Wunderground v.1.15,2013-04-03 14:20:00,
2013-04-03 09:22:00,32.0,26.2,30.33,SE,134,8.0,8.0,79,0.00,,,0.00,Wunderground v.1.15,2013-04-03 14:22:00,
2013-04-03 09:26:00,32.2,26.4,30.33,SE,137,8.0,9.0,79,0.00,,,0.00,Wunderground v.1.15,2013-04-03 14:26:00,
2013-04-03 09:28:00,32.3,26.2,30.33,SE,144,8.0,9.0,78,0.00,,,0.00,Wunderground v.1.15,2013-04-03 14:28:00,
2013-04-03 09:32:00,32.5,26.7,30.33,SSE,147,8.0,8.0,79,0.00,,,0.00,Wunderground v.1.15,2013-04-03 14:32:00,
2013-04-03 09:34:00,32.8,27.0,30.32,SSE,149,8.0,8.0,79,0.00,,,0.00,Wunderground v.1.15,2013-04-03 14:34:00,
2013-04-03 09:38:00,33.0,26.6,30.32,ESE,122,7.0,8.0,77,0.00,,,0.00,Wunderground v.1.15,2013-04-03 14:38:00,
2013-04-03 09:40:00,33.1,26.7,30.32,SE,145,7.0,7.0,77,0.00,,,0.00,Wunderground v.1.15,2013-04-03 14:40:00,
2013-04-03 09:46:00,33.2,26.8,30.32,SSE,159,8.0,9.0,77,0.00,,,0.00,Wunderground v.1.15,2013-04-03 14:46:00,
2013-04-03 09:48:00,33.3,26.9,30.31,SSE,153,8.0,9.0,77,0.00,,,0.00,Wunderground v.1.15,2013-04-03 14:48:00,
2013-04-03 09:54:00,33.2,26.5,30.31,SSE,167,8.0,9.0,76,0.00,,,0.00,Wunderground v.1.15,2013-04-03 14:54:00,
2013-04-03 09:55:00,33.2,26.5,30.31,ESE,121,8.0,9.0,76,0.00,,,0.00,Wunderground v.1.15,2013-04-03 14:55:00,
2013-04-03 10:02:00,33.5,27.4,30.31,SE,127,8.0,10.0,78,0.00,,,0.00,Wunderground v.1.15,2013-04-03 15:02:00,
2013-04-03 10:08:00,33.8,27.4,30.31,SSE,165,8.0,11.0,77,0.00,,,0.00,Wunderground v.1.15,2013-04-03 15:08:00,
2013-04-03 10:10:00,33.9,27.1,30.31,SSE,165,8.0,10.0,76,0.00,,,0.00,Wunderground v.1.15,2013-04-03 15:10:00,
2013-04-03 10:18:00,34.1,27.0,30.30,SE,136,9.0,13.0,75,0.00,,,0.00,Wunderground v.1.15,2013-04-03 15:18:00,
2013-04-03 10:20:00,34.1,27.3,30.30,SE,139,9.0,11.0,76,0.00,,,0.00,Wunderground v.1.15,2013-04-03 15:20:00,
2013-04-03 10:22:00,34.2,27.1,30.31,SSE,150,10.0,11.0,75,0.00,,,0.00,Wunderground v.1.15,2013-04-03 15:22:00,
2013-04-03 10:24:00,34.3,27.5,30.31,SE,139,10.0,11.0,76,0.00,,,0.00,Wunderground v.1.15,2013-04-03 15:24:00,
2013-04-03 10:28:00,34.5,27.4,30.31,SE,146,10.0,11.0,75,0.00,,,0.00,Wunderground v.1.15,2013-04-03 15:28:00,
2013-04-03 10:30:00,34.6,27.5,30.31,SE,146,10.0,10.0,75,0.00,,,0.00,Wunderground v.1.15,2013-04-03 15:30:00,
2013-04-03 10:32:00,34.8,28.3,30.31,SE,138,9.0,10.0,77,0.00,,,0.00,Wunderground v.1.15,2013-04-03 15:32:00,
2013-04-03 10:36:00,35.2,28.1,30.30,SSW,205,9.0,10.0,75,0.00,,,0.00,Wunderground v.1.15,2013-04-03 15:36:00,
2013-04-03 10:38:00,35.3,28.2,30.30,SE,129,8.0,10.0,75,0.00,,,0.00,Wunderground v.1.15,2013-04-03 15:38:00,
2013-04-03 10:40:00,35.3,27.8,30.30,SE,136,8.0,11.0,74,0.00,,,0.00,Wunderground v.1.15,2013-04-03 15:40:00,
2013-04-03 10:42:00,35.3,27.8,30.30,SE,132,9.0,11.0,74,0.00,,,0.00,Wunderground v.1.15,2013-04-03 15:42:00,
2013-04-03 10:48:00,35.7,27.9,30.30,SE,142,9.0,11.0,73,0.00,,,0.00,Wunderground v.1.15,2013-04-03 15:48:00,
2013-04-03 10:49:00,35.7,28.2,30.30,SE,146,9.0,9.0,74,0.00,,,0.00,Wunderground v.1.15,2013-04-03 15:49:00,
2013-04-03 10:54:00,36.0,28.5,30.30,SE,145,9.0,14.0,74,0.00,,,0.00,Wunderground v.1.15,2013-04-03 15:54:00,
2013-04-03 10:55:00,36.0,27.8,30.30,South,170,10.0,14.0,72,0.00,,,0.00,Wunderground v.1.15,2013-04-03 15:55:00,
2013-04-03 11:02:00,36.2,28.4,30.30,SE,136,10.0,11.0,73,0.00,,,0.00,Wunderground v.1.15,2013-04-03 16:02:00,
2013-04-03 11:08:00,36.5,28.3,30.30,SSW,198,10.0,12.0,72,0.00,,,0.00,Wunderground v.1.15,2013-04-03 16:08:00,
2013-04-03 11:18:00,36.8,28.6,30.30,SE,136,11.0,11.0,72,0.00,,,0.00,Wunderground v.1.15,2013-04-03 16:18:00,
2013-04-03 11:22:00,37.0,28.8,30.29,SE,124,10.0,11.0,72,0.00,,,0.00,Wunderground v.1.15,2013-04-03 16:22:00,
2013-04-03 11:24:00,37.1,29.6,30.29,SE,131,10.0,11.0,74,0.00,,,0.00,Wunderground v.1.15,2013-04-03 16:24:00,
2013-04-03 11:28:00,37.4,29.2,30.29,SSE,165,10.0,11.0,72,0.00,,,0.00,Wunderground v.1.15,2013-04-03 16:28:00,
2013-04-03 11:32:00,37.6,29.7,30.30,SE,146,10.0,12.0,73,0.00,,,0.00,Wunderground v.1.15,2013-04-03 16:32:00,
2013-04-03 11:34:00,37.6,29.0,30.30,SSE,152,10.0,12.0,71,0.00,,,0.00,Wunderground v.1.15,2013-04-03 16:34:00,
2013-04-03 11:38:00,37.7,29.5,30.30,SSE,158,10.0,12.0,72,0.00,,,0.00,Wunderground v.1.15,2013-04-03 16:38:00,
2013-04-03 11:44:00,37.9,29.7,30.30,SE,124,11.0,11.0,72,0.00,,,0.00,Wunderground v.1.15,2013-04-03 16:44:00,
2013-04-03 11:46:00,38.0,29.4,30.29,ESE,118,10.0,15.0,71,0.00,,,0.00,Wunderground v.1.15,2013-04-03 16:46:00,
2013-04-03 11:48:00,37.9,29.3,30.29,SE,134,11.0,15.0,71,0.00,,,0.00,Wunderground v.1.15,2013-04-03 16:48:00,
2013-04-03 11:54:00,38.1,29.9,30.29,SSE,155,11.0,12.0,72,0.00,,,0.00,Wunderground v.1.15,2013-04-03 16:54:00,
2013-04-03 11:58:00,38.3,29.7,30.29,South,174,10.0,12.0,71,0.00,,,0.00,Wunderground v.1.15,2013-04-03 16:58:00,
2013-04-03 12:00:00,38.4,29.5,30.29,SSE,163,10.0,10.0,70,0.00,,,0.00,Wunderground v.1.15,2013-04-03 17:00:00,
2013-04-03 12:04:00,38.9,29.9,30.29,SSE,152,10.0,14.0,70,0.00,,,0.00,Wunderground v.1.15,2013-04-03 17:04:00,
2013-04-03 12:08:00,39.0,30.4,30.29,SE,145,10.0,14.0,71,0.00,,,0.00,Wunderground v.1.15,2013-04-03 17:08:00,
2013-04-03 12:14:00,39.3,30.7,30.28,SE,143,10.0,12.0,71,0.00,,,0.00,Wunderground v.1.15,2013-04-03 17:14:00,
2013-04-03 12:16:00,39.4,30.4,30.28,SSE,149,10.0,12.0,70,0.00,,,0.00,Wunderground v.1.15,2013-04-03 17:16:00,
2013-04-03 12:18:00,39.5,30.9,30.28,SSE,158,10.0,12.0,71,0.00,,,0.00,Wunderground v.1.15,2013-04-03 17:18:00,
2013-04-03 12:22:00,39.8,30.1,30.28,South,170,9.0,10.0,68,0.00,,,0.00,Wunderground v.1.15,2013-04-03 17:22:00,
2013-04-03 12:26:00,39.8,30.1,30.28,SSE,155,10.0,11.0,68,0.00,,,0.00,Wunderground v.1.15,2013-04-03 17:26:00,
2013-04-03 12:32:00,40.1,30.7,30.27,SE,142,10.0,10.0,69,0.00,,,0.00,Wunderground v.1.15,2013-04-03 17:32:00,
2013-04-03 12:38:00,40.4,30.7,30.27,SSE,168,10.0,14.0,68,0.00,,,0.00,Wunderground v.1.15,2013-04-03 17:38:00,
2013-04-03 12:40:00,40.5,30.8,30.27,SE,145,10.0,10.0,68,0.00,,,0.00,Wunderground v.1.15,2013-04-03 17:40:00,
2013-04-03 12:42:00,40.6,30.9,30.27,SSE,150,10.0,10.0,68,0.00,,,0.00,Wunderground v.1.15,2013-04-03 17:42:00,
2013-04-03 12:46:00,40.8,31.1,30.27,SE,134,10.0,14.0,68,0.00,,,0.00,Wunderground v.1.15,2013-04-03 17:46:00,
2013-04-03 12:48:00,40.8,30.3,30.27,SE,145,10.0,14.0,66,0.00,,,0.00,Wunderground v.1.15,2013-04-03 17:48:00,
2013-04-03 12:52:00,40.9,30.8,30.27,South,181,9.0,9.0,67,0.00,,,0.00,Wunderground v.1.15,2013-04-03 17:52:00,
2013-04-03 12:54:00,41.0,30.9,30.26,SE,142,10.0,11.0,67,0.00,,,0.00,Wunderground v.1.15,2013-04-03 17:54:00,
2013-04-03 13:00:00,41.3,31.2,30.27,SE,143,10.0,10.0,67,0.00,,,0.00,Wunderground v.1.15,2013-04-03 18:00:00,
2013-04-03 13:02:00,41.3,30.8,30.27,SSE,162,10.0,11.0,66,0.00,,,0.00,Wunderground v.1.15,2013-04-03 18:02:00,
2013-04-03 13:08:00,41.2,30.7,30.26,SE,142,11.0,16.0,66,0.00,,,0.00,Wunderground v.1.15,2013-04-03 18:08:00,
2013-04-03 13:10:00,41.4,31.3,30.26,SE,134,11.0,16.0,67,0.00,,,0.00,Wunderground v.1.15,2013-04-03 18:10:00,
2013-04-03 13:14:00,41.7,31.5,30.26,South,176,11.0,16.0,67,0.00,,,0.00,Wunderground v.1.15,2013-04-03 18:14:00,
2013-04-03 13:18:00,41.9,32.1,30.26,South,170,10.0,16.0,68,0.00,,,0.00,Wunderground v.1.15,2013-04-03 18:18:00,
2013-04-03 13:20:00,42.1,31.9,30.26,South,176,10.0,16.0,67,0.00,,,0.00,Wunderground v.1.15,2013-04-03 18:20:00,
2013-04-03 13:26:00,42.4,31.5,30.26,SE,132,10.0,16.0,65,0.00,,,0.00,Wunderground v.1.15,2013-04-03 18:26:00,
2013-04-03 13:28:00,42.5,32.3,30.26,South,187,9.0,16.0,67,0.00,,,0.00,Wunderground v.1.15,2013-04-03 18:28:00,
2013-04-03 13:30:00,42.7,32.1,30.26,South,177,9.0,16.0,66,0.00,,,0.00,Wunderground v.1.15,2013-04-03 18:30:00,
2013-04-03 13:34:00,42.8,31.8,30.25,South,174,9.0,16.0,65,0.00,,,0.00,Wunderground v.1.15,2013-04-03 18:34:00,
2013-04-03 13:36:00,43.1,32.1,30.26,SSE,148,9.0,16.0,65,0.00,,,0.00,Wunderground v.1.15,2013-04-03 18:36:00,
2013-04-03 13:38:00,43.2,32.2,30.25,SSE,156,9.0,16.0,65,0.00,,,0.00,Wunderground v.1.15,2013-04-03 18:38:00,
2013-04-03 13:44:00,43.2,32.2,30.25,SSE,167,9.0,16.0,65,0.00,,,0.00,Wunderground v.1.15,2013-04-03 18:44:00,
2013-04-03 13:46:00,43.3,32.7,30.25,SSE,155,10.0,16.0,66,0.00,,,0.00,Wunderground v.1.15,2013-04-03 18:46:00,
2013-04-03 13:49:00,43.4,32.0,30.25,South,180,10.0,16.0,64,0.00,,,0.00,Wunderground v.1.15,2013-04-03 18:49:00,
2013-04-03 13:54:00,43.7,31.9,30.25,South,180,10.0,16.0,63,0.00,,,0.00,Wunderground v.1.15,2013-04-03 18:54:00,
2013-04-03 13:56:00,43.8,32.8,30.25,SSE,152,9.0,16.0,65,0.00,,,0.00,Wunderground v.1.15,2013-04-03 18:56:00,
2013-04-03 14:00:00,44.1,32.3,30.24,SSE,155,9.0,16.0,63,0.00,,,0.00,Wunderground v.1.15,2013-04-03 19:00:00,
2013-04-03 14:02:00,44.2,32.8,30.25,SSE,160,9.0,16.0,64,0.00,,,0.00,Wunderground v.1.15,2013-04-03 19:02:00,
2013-04-03 14:04:00,44.3,32.9,30.24,SSE,148,9.0,16.0,64,0.00,,,0.00,Wunderground v.1.15,2013-04-03 19:04:00,
2013-04-03 14:06:00,44.3,33.3,30.24,SSE,156,9.0,16.0,65,0.00,,,0.00,Wunderground v.1.15,2013-04-03 19:06:00,
2013-04-03 14:08:00,44.3,32.5,30.25,South,171,10.0,16.0,63,0.00,,,0.00,Wunderground v.1.15,2013-04-03 19:08:00,
2013-04-03 14:14:00,44.2,32.4,30.24,SSE,158,10.0,16.0,63,0.00,,,0.00,Wunderground v.1.15,2013-04-03 19:14:00,
2013-04-03 14:16:00,44.2,32.4,30.24,SSE,160,10.0,16.0,63,0.00,,,0.00,Wunderground v.1.15,2013-04-03 19:16:00,
2013-04-03 14:22:00,44.3,32.9,30.24,SSE,165,10.0,16.0,64,0.00,,,0.00,Wunderground v.1.15,2013-04-03 19:22:00,
2013-04-03 14:24:00,44.6,33.6,30.24,SSE,155,10.0,16.0,65,0.00,,,0.00,Wunderground v.1.15,2013-04-03 19:24:00,
2013-04-03 14:28:00,44.9,33.5,30.23,SSE,155,9.0,16.0,64,0.00,,,0.00,Wunderground v.1.15,2013-04-03 19:28:00,
2013-04-03 14:29:00,44.9,33.5,30.23,South,169,10.0,10.0,64,0.00,,,0.00,Wunderground v.1.15,2013-04-03 19:29:00,
2013-04-03 14:38:00,45.6,33.3,30.23,SSW,211,9.0,16.0,62,0.00,,,0.00,Wunderground v.1.15,2013-04-03 19:38:00,
2013-04-03 14:40:00,45.8,32.7,30.23,SW,226,10.0,16.0,60,0.00,,,0.00,Wunderground v.1.15,2013-04-03 19:40:00,
2013-04-03 14:42:00,46.0,32.9,30.23,SSE,158,11.0,16.0,60,0.00,,,0.00,Wunderground v.1.15,2013-04-03 19:42:00,
2013-04-03 14:44:00,46.3,33.6,30.23,SSE,148,10.0,16.0,61,0.00,,,0.00,Wunderground v.1.15,2013-04-03 19:44:00,
2013-04-03 14:48:00,46.6,33.0,30.22,SSE,158,10.0,16.0,59,0.00,,,0.00,Wunderground v.1.15,2013-04-03 19:48:00,
2013-04-03 14:50:00,46.7,33.5,30.22,SSE,149,9.0,9.0,60,0.00,,,0.00,Wunderground v.1.15,2013-04-03 19:50:00,
2013-04-03 14:52:00,46.7,34.0,30.22,SSE,150,8.0,16.0,61,0.00,,,0.00,Wunderground v.1.15,2013-04-03 19:52:00,
2013-04-03 14:56:00,47.1,34.7,30.22,South,169,9.0,16.0,62,0.00,,,0.00,Wunderground v.1.15,2013-04-03 19:56:00,
2013-04-03 14:58:00,47.2,33.6,30.22,SSE,159,9.0,16.0,59,0.00,,,0.00,Wunderground v.1.15,2013-04-03 19:58:00,
2013-04-03 15:02:00,47.3,33.7,30.22,South,172,9.0,16.0,59,0.00,,,0.00,Wunderground v.1.15,2013-04-03 20:02:00,
2013-04-03 15:06:00,47.3,33.7,30.21,SE,143,8.0,16.0,59,0.00,,,0.00,Wunderground v.1.15,2013-04-03 20:06:00,
2013-04-03 15:08:00,47.1,33.5,30.21,SSE,165,9.0,16.0,59,0.00,,,0.00,Wunderground v.1.15,2013-04-03 20:08:00,
2013-04-03 15:10:00,47.1,33.9,30.21,SE,141,9.0,16.0,60,0.00,,,0.00,Wunderground v.1.15,2013-04-03 20:10:00,
2013-04-03 15:12:00,47.0,34.2,30.21,South,169,9.0,16.0,61,0.00,,,0.00,Wunderground v.1.15,2013-04-03 20:12:00,
2013-04-03 15:14:00,47.1,34.3,30.21,South,177,9.0,16.0,61,0.00,,,0.00,Wunderground v.1.15,2013-04-03 20:14:00,
2013-04-03 15:18:00,47.3,34.1,30.20,SSE,159,9.0,16.0,60,0.00,,,0.00,Wunderground v.1.15,2013-04-03 20:18:00,
2013-04-03 15:20:00,47.4,34.2,30.20,SSE,166,9.0,9.0,60,0.00,,,0.00,Wunderground v.1.15,2013-04-03 20:20:00,
2013-04-03 15:26:00,47.9,33.4,30.20,SSW,195,9.0,16.0,57,0.00,,,0.00,Wunderground v.1.15,2013-04-03 20:26:00,
2013-04-03 15:28:00,48.1,34.0,30.20,SSE,163,9.0,16.0,58,0.00,,,0.00,Wunderground v.1.15,2013-04-03 20:28:00,
2013-04-03 15:32:00,48.3,33.3,30.20,SSW,201,9.0,10.0,56,0.00,,,0.00,Wunderground v.1.15,2013-04-03 20:32:00,
2013-04-03 15:34:00,48.4,33.4,30.20,SSE,150,9.0,11.0,56,0.00,,,0.00,Wunderground v.1.15,2013-04-03 20:34:00,
2013-04-03 15:36:00,48.5,33.5,30.20,SSW,200,9.0,14.0,56,0.00,,,0.00,Wunderground v.1.15,2013-04-03 20:36:00,
2013-04-03 15:40:00,48.8,33.3,30.20,SE,134,9.0,16.0,55,0.00,,,0.00,Wunderground v.1.15,2013-04-03 20:40:00,
2013-04-03 15:50:00,49.1,33.6,30.19,South,191,9.0,16.0,55,0.00,,,0.00,Wunderground v.1.15,2013-04-03 20:50:00,
2013-04-03 15:54:00,49.2,33.3,30.19,South,170,9.0,16.0,54,0.00,,,0.00,Wunderground v.1.15,2013-04-03 20:54:00,
2013-04-03 15:58:00,49.3,33.3,30.19,SSE,167,11.0,16.0,54,0.00,,,0.00,Wunderground v.1.15,2013-04-03 20:58:00,
2013-04-03 16:02:00,49.3,32.4,30.19,SSE,149,11.0,16.0,52,0.00,,,0.00,Wunderground v.1.15,2013-04-03 21:02:00,
2013-04-03 16:04:00,49.5,33.1,30.19,South,179,11.0,16.0,53,0.00,,,0.00,Wunderground v.1.15,2013-04-03 21:04:00,
2013-04-03 16:08:00,49.4,33.4,30.18,SSW,210,10.0,16.0,54,0.00,,,0.00,Wunderground v.1.15,2013-04-03 21:08:00,
2013-04-03 16:10:00,49.3,33.3,30.18,SSE,157,10.0,10.0,54,0.00,,,0.00,Wunderground v.1.15,2013-04-03 21:10:00,
2013-04-03 16:12:00,49.5,33.5,30.18,SSE,162,10.0,16.0,54,0.00,,,0.00,Wunderground v.1.15,2013-04-03 21:12:00,
2013-04-03 16:16:00,49.7,33.7,30.18,SSE,160,9.0,16.0,54,0.00,,,0.00,Wunderground v.1.15,2013-04-03 21:16:00,
2013-04-03 16:22:00,49.8,33.3,30.18,SSE,150,9.0,16.0,53,0.00,,,0.00,Wunderground v.1.15,2013-04-03 21:22:00,
2013-04-03 16:24:00,49.9,33.9,30.18,SSE,150,9.0,16.0,54,0.00,,,0.00,Wunderground v.1.15,2013-04-03 21:24:00,
2013-04-03 16:28:00,49.9,33.0,30.18,South,190,9.0,16.0,52,0.00,,,0.00,Wunderground v.1.15,2013-04-03 21:28:00,
2013-04-03 16:30:00,49.9,33.0,30.18,South,179,9.0,9.0,52,0.00,,,0.00,Wunderground v.1.15,2013-04-03 21:30:00,
2013-04-03 16:32:00,49.9,33.4,30.18,SSW,207,9.0,13.0,53,0.00,,,0.00,Wunderground v.1.15,2013-04-03 21:32:00,
2013-04-03 16:38:00,49.9,33.4,30.17,SW,217,9.0,16.0,53,0.00,,,0.00,Wunderground v.1.15,2013-04-03 21:38:00,
2013-04-03 16:40:00,50.0,33.1,30.17,South,169,10.0,16.0,52,0.00,,,0.00,Wunderground v.1.15,2013-04-03 21:40:00,
2013-04-03 16:44:00,50.1,32.7,30.17,SW,214,10.0,16.0,51,0.00,,,0.00,Wunderground v.1.15,2013-04-03 21:44:00,
2013-04-03 16:46:00,50.1,33.6,30.17,SSE,150,11.0,16.0,53,0.00,,,0.00,Wunderground v.1.15,2013-04-03 21:46:00,
2013-04-03 16:48:00,50.1,32.7,30.17,South,188,11.0,16.0,51,0.00,,,0.00,Wunderground v.1.15,2013-04-03 21:48:00,
2013-04-03 16:50:00,50.2,33.2,30.17,SSW,211,11.0,16.0,52,0.00,,,0.00,Wunderground v.1.15,2013-04-03 21:50:00,
2013-04-03 16:52:00,50.1,32.7,30.17,SSW,193,11.0,16.0,51,0.00,,,0.00,Wunderground v.1.15,2013-04-03 21:52:00,
2013-04-03 16:54:00,50.1,33.1,30.17,SSW,207,11.0,16.0,52,0.00,,,0.00,Wunderground v.1.15,2013-04-03 21:54:00,
2013-04-03 16:56:00,50.0,33.1,30.17,SE,140,11.0,16.0,52,0.00,,,0.00,Wunderground v.1.15,2013-04-03 21:56:00,
2013-04-03 16:58:00,49.9,32.5,30.17,SSW,197,11.0,16.0,51,0.00,,,0.00,Wunderground v.1.15,2013-04-03 21:58:00,
2013-04-03 17:00:00,50.0,33.5,30.17,South,172,11.0,11.0,53,0.00,,,0.00,Wunderground v.1.15,2013-04-03 22:00:00,
2013-04-03 17:02:00,50.2,33.7,30.17,SSE,162,10.0,16.0,53,0.00,,,0.00,Wunderground v.1.15,2013-04-03 22:02:00,
2013-04-03 17:06:00,50.3,33.3,30.16,SSE,168,10.0,16.0,52,0.00,,,0.00,Wunderground v.1.15,2013-04-03 22:06:00,
2013-04-03 17:10:00,50.3,33.8,30.16,SSW,203,9.0,16.0,53,0.00,,,0.00,Wunderground v.1.15,2013-04-03 22:10:00,
2013-04-03 17:12:00,50.5,33.5,30.16,SSW,205,9.0,16.0,52,0.00,,,0.00,Wunderground v.1.15,2013-04-03 22:12:00,
2013-04-03 17:14:00,50.6,34.1,30.16,SSW,193,9.0,16.0,53,0.00,,,0.00,Wunderground v.1.15,2013-04-03 22:14:00,
2013-04-03 17:16:00,50.7,34.2,30.16,SW,220,8.0,16.0,53,0.00,,,0.00,Wunderground v.1.15,2013-04-03 22:16:00,
2013-04-03 17:18:00,50.7,34.2,30.16,SSE,150,8.0,16.0,53,0.00,,,0.00,Wunderground v.1.15,2013-04-03 22:18:00,
2013-04-03 17:22:00,50.8,34.3,30.16,SSE,165,6.0,16.0,53,0.00,,,0.00,Wunderground v.1.15,2013-04-03 22:22:00,
2013-04-03 17:24:00,50.8,33.8,30.16,South,181,7.0,16.0,52,0.00,,,0.00,Wunderground v.1.15,2013-04-03 22:24:00,
2013-04-03 17:26:00,50.8,33.3,30.16,SSW,194,7.0,16.0,51,0.00,,,0.00,Wunderground v.1.15,2013-04-03 22:26:00,
2013-04-03 17:30:00,50.6,33.6,30.16,South,176,8.0,8.0,52,0.00,,,0.00,Wunderground v.1.15,2013-04-03 22:30:00,
2013-04-03 17:36:00,50.3,33.3,30.16,South,188,8.0,16.0,52,0.00,,,0.00,Wunderground v.1.15,2013-04-03 22:36:00,
2013-04-03 17:38:00,50.3,33.3,30.16,South,176,8.0,16.0,52,0.00,,,0.00,Wunderground v.1.15,2013-04-03 22:38:00,
2013-04-03 17:40:00,50.4,33.4,30.15,SSW,200,8.0,16.0,52,0.00,,,0.00,Wunderground v.1.15,2013-04-03 22:40:00,
2013-04-03 17:44:00,50.4,33.4,30.15,ESE,115,8.0,16.0,52,0.00,,,0.00,Wunderground v.1.15,2013-04-03 22:44:00,
2013-04-03 17:46:00,50.4,33.4,30.15,SW,219,8.0,16.0,52,0.00,,,0.00,Wunderground v.1.15,2013-04-03 22:46:00,
2013-04-03 17:52:00,50.5,33.5,30.15,SW,226,8.0,16.0,52,0.00,,,0.00,Wunderground v.1.15,2013-04-03 22:52:00,
2013-04-03 17:54:00,50.5,33.0,30.15,SW,224,9.0,16.0,51,0.00,,,0.00,Wunderground v.1.15,2013-04-03 22:54:00,
2013-04-03 17:56:00,50.5,33.5,30.15,SSW,208,9.0,16.0,52,0.00,,,0.00,Wunderground v.1.15,2013-04-03 22:56:00,
2013-04-03 17:58:00,50.5,33.5,30.15,SSW,210,9.0,16.0,52,0.00,,,0.00,Wunderground v.1.15,2013-04-03 22:58:00,
2013-04-03 18:02:00,50.4,33.9,30.14,WSW,240,8.0,12.0,53,0.00,,,0.00,Wunderground v.1.15,2013-04-03 23:02:00,
2013-04-03 18:04:00,50.4,33.4,30.15,SW,217,8.0,16.0,52,0.00,,,0.00,Wunderground v.1.15,2013-04-03 23:04:00,
2013-04-03 18:10:00,50.3,33.8,30.14,SSW,193,9.0,9.0,53,0.00,,,0.00,Wunderground v.1.15,2013-04-03 23:10:00,
2013-04-03 18:12:00,50.2,33.7,30.14,SE,138,9.0,16.0,53,0.00,,,0.00,Wunderground v.1.15,2013-04-03 23:12:00,
2013-04-03 18:14:00,50.2,33.2,30.15,SSW,201,9.0,16.0,52,0.00,,,0.00,Wunderground v.1.15,2013-04-03 23:14:00,
2013-04-03 18:16:00,50.2,33.7,30.15,SW,233,9.0,16.0,53,0.00,,,0.00,Wunderground v.1.15,2013-04-03 23:16:00,
2013-04-03 18:20:00,50.3,33.3,30.15,SSW,203,8.0,8.0,52,0.00,,,0.00,Wunderground v.1.15,2013-04-03 23:20:00,
2013-04-03 18:22:00,50.3,33.3,30.15,SSE,148,8.0,9.0,52,0.00,,,0.00,Wunderground v.1.15,2013-04-03 23:22:00,
2013-04-03 18:26:00,50.3,33.3,30.15,SSW,205,8.0,16.0,52,0.00,,,0.00,Wunderground v.1.15,2013-04-03 23:26:00,
2013-04-03 18:28:00,50.3,33.3,30.14,SW,235,9.0,16.0,52,0.00,,,0.00,Wunderground v.1.15,2013-04-03 23:28:00,
2013-04-03 18:30:00,50.4,33.4,30.15,SSW,195,9.0,9.0,52,0.00,,,0.00,Wunderground v.1.15,2013-04-03 23:30:00,
2013-04-03 18:32:00,50.4,33.4,30.15,SW,230,8.0,10.0,52,0.00,,,0.00,Wunderground v.1.15,2013-04-03 23:32:00,
2013-04-03 18:34:00,50.4,33.9,30.15,South,183,8.0,16.0,53,0.00,,,0.00,Wunderground v.1.15,2013-04-03 23:34:00,
2013-04-03 18:38:00,50.2,33.2,30.15,SSW,203,8.0,16.0,52,0.00,,,0.00,Wunderground v.1.15,2013-04-03 23:38:00,
2013-04-03 18:42:00,50.1,33.6,30.15,SE,131,7.0,16.0,53,0.00,,,0.00,Wunderground v.1.15,2013-04-03 23:42:00,
2013-04-03 18:47:00,50.1,33.6,30.15,SSW,210,6.0,16.0,53,0.00,,,0.00,Wunderground v.1.15,2013-04-03 23:47:00,
2013-04-03 18:54:00,49.8,33.8,30.14,SSE,155,6.0,16.0,54,0.00,,,0.00,Wunderground v.1.15,2013-04-03 23:54:00,
2013-04-03 18:56:00,49.7,33.7,30.14,SE,132,7.0,16.0,54,0.00,,,0.00,Wunderground v.1.15,2013-04-03 23:56:00,
2013-04-03 19:00:00,49.5,33.5,30.14,SSW,198,7.0,7.0,54,0.00,,,0.00,Wunderground v.1.15,2013-04-04 00:00:00,
2013-04-03 19:04:00,49.5,34.0,30.14,South,169,6.0,16.0,55,0.00,,,0.00,Wunderground v.1.15,2013-04-04 00:04:00,
2013-04-03 19:06:00,49.3,33.8,30.14,SE,145,6.0,16.0,55,0.00,,,0.00,Wunderground v.1.15,2013-04-04 00:06:00,
2013-04-03 19:12:00,48.9,33.9,30.14,South,176,5.0,16.0,56,0.00,,,0.00,Wunderground v.1.15,2013-04-04 00:12:00,
2013-04-03 19:14:00,48.8,33.8,30.14,ESE,116,5.0,16.0,56,0.00,,,0.00,Wunderground v.1.15,2013-04-04 00:14:00,
2013-04-03 19:20:00,48.3,34.2,30.14,SE,141,4.0,4.0,58,0.00,,,0.00,Wunderground v.1.15,2013-04-04 00:20:00,
2013-04-03 19:26:00,47.8,33.7,30.14,SSW,192,5.0,16.0,58,0.00,,,0.00,Wunderground v.1.15,2013-04-04 00:26:00,
2013-04-03 19:28:00,47.6,33.5,30.14,SSE,162,5.0,16.0,58,0.00,,,0.00,Wunderground v.1.15,2013-04-04 00:28:00,
2013-04-03 19:30:00,47.3,33.7,30.15,SSE,158,5.0,5.0,59,0.00,,,0.00,Wunderground v.1.15,2013-04-04 00:30:00,
2013-04-03 19:36:00,46.7,33.5,30.14,SSE,159,4.0,16.0,60,0.00,,,0.00,Wunderground v.1.15,2013-04-04 00:36:00,
2013-04-03 19:38:00,46.4,33.7,30.14,SSE,167,4.0,16.0,61,0.00,,,0.00,Wunderground v.1.15,2013-04-04 00:38:00,
2013-04-03 19:42:00,45.9,33.6,30.14,SSE,162,4.0,5.0,62,0.00,,,0.00,Wunderground v.1.15,2013-04-04 00:42:00,
2013-04-03 19:44:00,45.5,34.0,30.14,SSE,165,4.0,16.0,64,0.00,,,0.00,Wunderground v.1.15,2013-04-04 00:44:00,
2013-04-03 19:48:00,44.6,33.9,30.14,SSE,160,4.0,16.0,66,0.00,,,0.00,Wunderground v.1.15,2013-04-04 00:48:00,
2013-04-03 19:52:00,44.0,33.7,30.14,SSE,160,4.0,16.0,67,0.00,,,0.00,Wunderground v.1.15,2013-04-04 00:52:00,
2013-04-03 19:54:00,43.7,33.8,30.14,SSE,150,4.0,16.0,68,0.00,,,0.00,Wunderground v.1.15,2013-04-04 00:54:00,
2013-04-03 19:58:00,43.1,33.6,30.14,SSE,156,3.0,16.0,69,0.00,,,0.00,Wunderground v.1.15,2013-04-04 00:58:00,
2013-04-03 20:00:00,42.8,33.7,30.14,SSE,156,3.0,3.0,70,0.00,,,0.00,Wunderground v.1.15,2013-04-04 01:00:00,
2013-04-03 20:06:00,42.3,33.6,30.14,SSE,154,3.0,16.0,71,0.00,,,0.00,Wunderground v.1.15,2013-04-04 01:06:00,
2013-04-03 20:08:00,42.2,33.5,30.14,SSE,155,3.0,16.0,71,0.00,,,0.00,Wunderground v.1.15,2013-04-04 01:08:00,
2013-04-03 20:12:00,42.0,33.6,30.14,SE,141,3.0,16.0,72,0.00,,,0.00,Wunderground v.1.15,2013-04-04 01:12:00,
2013-04-03 20:14:00,41.8,33.4,30.14,SSE,167,3.0,16.0,72,0.00,,,0.00,Wunderground v.1.15,2013-04-04 01:14:00,
2013-04-03 20:16:00,41.7,33.7,30.14,SSE,164,3.0,16.0,73,0.00,,,0.00,Wunderground v.1.15,2013-04-04 01:16:00,
2013-04-03 20:18:00,41.6,33.6,30.14,SSE,152,3.0,16.0,73,0.00,,,0.00,Wunderground v.1.15,2013-04-04 01:18:00,
2013-04-03 20:24:00,41.3,33.3,30.14,SSE,156,3.0,16.0,73,0.00,,,0.00,Wunderground v.1.15,2013-04-04 01:24:00,
2013-04-03 20:30:00,41.0,33.3,30.14,SSE,159,3.0,16.0,74,0.00,,,0.00,Wunderground v.1.15,2013-04-04 01:30:00,
2013-04-03 20:34:00,40.9,33.2,30.14,SSE,148,3.0,16.0,74,0.00,,,0.00,Wunderground v.1.15,2013-04-04 01:34:00,
2013-04-03 20:38:00,40.7,33.1,30.14,SSE,155,4.0,16.0,74,0.00,,,0.00,Wunderground v.1.15,2013-04-04 01:38:00,
2013-04-03 20:40:00,40.6,33.0,30.14,SSE,158,4.0,16.0,74,0.00,,,0.00,Wunderground v.1.15,2013-04-04 01:40:00,
2013-04-03 20:42:00,40.5,32.9,30.14,SSE,156,3.0,16.0,74,0.00,,,0.00,Wunderground v.1.15,2013-04-04 01:42:00,
2013-04-03 20:44:00,40.4,32.8,30.14,SSE,155,4.0,16.0,74,0.00,,,0.00,Wunderground v.1.15,2013-04-04 01:44:00,
2013-04-03 20:50:00,40.2,32.9,30.14,SSE,160,3.0,16.0,75,0.00,,,0.00,Wunderground v.1.15,2013-04-04 01:50:00,
2013-04-03 20:52:00,40.2,32.9,30.14,South,181,4.0,16.0,75,0.00,,,0.00,Wunderground v.1.15,2013-04-04 01:52:00,
2013-04-03 20:56:00,40.2,32.6,30.14,SSE,156,3.0,16.0,74,0.00,,,0.00,Wunderground v.1.15,2013-04-04 01:56:00,
2013-04-03 20:58:00,40.1,32.5,30.14,SE,138,3.0,16.0,74,0.00,,,0.00,Wunderground v.1.15,2013-04-04 01:58:00,
2013-04-03 21:02:00,40.1,32.5,30.14,SSE,165,3.0,16.0,74,0.00,,,0.00,Wunderground v.1.15,2013-04-04 02:02:00,
2013-04-03 21:04:00,40.1,32.5,30.14,SSE,167,3.0,16.0,74,0.00,,,0.00,Wunderground v.1.15,2013-04-04 02:04:00,
2013-04-03 21:08:00,40.0,32.7,30.14,South,169,3.0,16.0,75,0.00,,,0.00,Wunderground v.1.15,2013-04-04 02:08:00,
2013-04-03 21:12:00,39.9,32.6,30.14,SSE,148,3.0,16.0,75,0.00,,,0.00,Wunderground v.1.15,2013-04-04 02:12:00,
2013-04-03 21:14:00,39.9,32.6,30.14,SSE,161,3.0,16.0,75,0.00,,,0.00,Wunderground v.1.15,2013-04-04 02:14:00,
2013-04-03 21:20:00,39.8,32.5,30.14,SE,139,4.0,16.0,75,0.00,,,0.00,Wunderground v.1.15,2013-04-04 02:20:00,
2013-04-03 21:22:00,39.9,32.6,30.14,SE,141,4.0,16.0,75,0.00,,,0.00,Wunderground v.1.15,2013-04-04 02:22:00,
2013-04-03 21:24:00,39.8,32.5,30.14,SE,143,4.0,16.0,75,0.00,,,0.00,Wunderground v.1.15,2013-04-04 02:24:00,
2013-04-03 21:26:00,39.8,32.5,30.14,SSE,155,4.0,16.0,75,0.00,,,0.00,Wunderground v.1.15,2013-04-04 02:26:00,
2013-04-03 21:30:00,39.8,32.5,30.14,ESE,113,4.0,16.0,75,0.00,,,0.00,Wunderground v.1.15,2013-04-04 02:30:00,
2013-04-03 21:32:00,39.7,32.4,30.14,South,174,4.0,16.0,75,0.00,,,0.00,Wunderground v.1.15,2013-04-04 02:32:00,
2013-04-03 21:36:00,39.7,32.4,30.14,SSE,150,4.0,16.0,75,0.00,,,0.00,Wunderground v.1.15,2013-04-04 02:36:00,
2013-04-03 21:40:00,39.6,32.3,30.14,SSE,161,4.0,16.0,75,0.00,,,0.00,Wunderground v.1.15,2013-04-04 02:40:00,
2013-04-03 21:42:00,39.7,32.4,30.14,SE,145,4.0,16.0,75,0.00,,,0.00,Wunderground v.1.15,2013-04-04 02:42:00,
2013-04-03 21:48:00,39.5,32.2,30.14,South,186,4.0,16.0,75,0.00,,,0.00,Wunderground v.1.15,2013-04-04 02:48:00,
2013-04-03 21:54:00,39.5,32.2,30.14,SE,142,4.0,6.0,75,0.00,,,0.00,Wunderground v.1.15,2013-04-04 02:54:00,
2013-04-03 21:58:00,39.5,32.2,30.14,South,190,4.0,16.0,75,0.00,,,0.00,Wunderground v.1.15,2013-04-04 02:58:00,
2013-04-03 22:00:00,39.4,32.1,30.14,SSW,198,4.0,16.0,75,0.00,,,0.00,Wunderground v.1.15,2013-04-04 03:00:00,
2013-04-03 22:08:00,39.3,32.0,30.14,SSE,160,5.0,16.0,75,0.00,,,0.00,Wunderground v.1.15,2013-04-04 03:08:00,
2013-04-03 22:10:00,39.3,32.0,30.14,South,172,5.0,5.0,75,0.00,,,0.00,Wunderground v.1.15,2013-04-04 03:10:00,
2013-04-03 22:12:00,39.2,32.3,30.14,South,191,5.0,16.0,76,0.00,,,0.00,Wunderground v.1.15,2013-04-04 03:12:00,
2013-04-03 22:20:00,39.1,32.2,30.14,SW,222,5.0,16.0,76,0.00,,,0.00,Wunderground v.1.15,2013-04-04 03:20:00,
2013-04-03 22:22:00,39.0,32.1,30.14,SSW,207,5.0,16.0,76,0.00,,,0.00,Wunderground v.1.15,2013-04-04 03:22:00,
2013-04-03 22:26:00,38.9,32.0,30.14,SE,125,5.0,16.0,76,0.00,,,0.00,Wunderground v.1.15,2013-04-04 03:26:00,
2013-04-03 22:28:00,38.9,32.0,30.14,SSW,197,5.0,16.0,76,0.00,,,0.00,Wunderground v.1.15,2013-04-04 03:28:00,
2013-04-03 22:30:00,38.8,31.9,30.14,SSE,156,5.0,16.0,76,0.00,,,0.00,Wunderground v.1.15,2013-04-04 03:30:00,
2013-04-03 22:34:00,38.8,31.9,30.14,SSE,159,5.0,16.0,76,0.00,,,0.00,Wunderground v.1.15,2013-04-04 03:34:00,
2013-04-03 22:40:00,38.7,31.8,30.14,South,191,5.0,16.0,76,0.00,,,0.00,Wunderground v.1.15,2013-04-04 03:40:00,
2013-04-03 22:42:00,38.7,31.8,30.13,SSE,165,5.0,16.0,76,0.00,,,0.00,Wunderground v.1.15,2013-04-04 03:42:00,
2013-04-03 22:47:00,38.7,31.8,30.13,SW,229,5.0,16.0,76,0.00,,,0.00,Wunderground v.1.15,2013-04-04 03:47:00,
2013-04-03 22:50:00,38.7,31.8,30.13,SSE,156,5.0,16.0,76,0.00,,,0.00,Wunderground v.1.15,2013-04-04 03:50:00,
2013-04-03 22:52:00,38.8,31.6,30.13,SW,224,5.0,16.0,75,0.00,,,0.00,Wunderground v.1.15,2013-04-04 03:52:00,
2013-04-03 22:56:00,38.9,31.6,30.13,South,187,5.0,16.0,75,0.00,,,0.00,Wunderground v.1.15,2013-04-04 03:56:00,
2013-04-03 22:58:00,39.0,31.4,30.13,SE,138,5.0,16.0,74,0.00,,,0.00,Wunderground v.1.15,2013-04-04 03:58:00,
2013-04-03 23:00:00,39.1,31.5,30.13,SE,136,5.0,16.0,74,0.00,,,0.00,Wunderground v.1.15,2013-04-04 04:00:00,
2013-04-03 23:04:00,39.2,31.3,30.12,South,175,6.0,16.0,73,0.00,,,0.00,Wunderground v.1.15,2013-04-04 04:04:00,
2013-04-03 23:08:00,39.4,31.1,30.12,SSE,165,6.0,16.0,72,0.00,,,0.00,Wunderground v.1.15,2013-04-04 04:08:00,
2013-04-03 23:14:00,39.6,31.3,30.12,SE,141,7.0,16.0,72,0.00,,,0.00,Wunderground v.1.15,2013-04-04 04:14:00,
2013-04-03 23:16:00,39.5,30.9,30.12,SSW,197,6.0,16.0,71,0.00,,,0.00,Wunderground v.1.15,2013-04-04 04:16:00,
2013-04-03 23:18:00,39.5,30.9,30.11,SSE,161,6.0,16.0,71,0.00,,,0.00,Wunderground v.1.15,2013-04-04 04:18:00,
2013-04-03 23:24:00,39.6,31.0,30.11,SE,143,6.0,16.0,71,0.00,,,0.00,Wunderground v.1.15,2013-04-04 04:24:00,
2013-04-03 23:26:00,39.6,31.0,30.11,SSE,158,7.0,16.0,71,0.00,,,0.00,Wunderground v.1.15,2013-04-04 04:26:00,
2013-04-03 23:30:00,39.5,30.9,30.11,SSW,207,6.0,16.0,71,0.00,,,0.00,Wunderground v.1.15,2013-04-04 04:30:00,
2013-04-03 23:32:00,39.4,30.8,30.11,South,181,6.0,16.0,71,0.00,,,0.00,Wunderground v.1.15,2013-04-04 04:32:00,
2013-04-03 23:38:00,39.3,30.7,30.11,South,188,6.0,16.0,71,0.00,,,0.00,Wunderground v.1.15,2013-04-04 04:38:00,
2013-04-03 23:40:00,39.3,30.7,30.11,SSW,193,6.0,16.0,71,0.00,,,0.00,Wunderground v.1.15,2013-04-04 04:40:00,
2013-04-03 23:42:00,39.3,30.7,30.11,SSE,151,6.0,16.0,71,0.00,,,0.00,Wunderground v.1.15,2013-04-04 04:42:00,
2013-04-03 23:46:00,39.2,30.6,30.11,SE,143,7.0,16.0,71,0.00,,,0.00,Wunderground v.1.15,2013-04-04 04:46:00,
2013-04-03 23:48:00,39.2,30.6,30.11,South,188,7.0,16.0,71,0.00,,,0.00,Wunderground v.1.15,2013-04-04 04:48:00,
2013-04-03 23:54:00,39.0,30.4,30.11,SSW,193,8.0,16.0,71,0.00,,,0.00,Wunderground v.1.15,2013-04-04 04:54:00,
2013-04-03 23:56:00,38.9,30.6,30.10,SSW,208,8.0,16.0,72,0.00,,,0.00,Wunderground v.1.15,2013-04-04 04:56:00,